createdAt,value
2022-10-04T00:01:45.013Z,101294.47
2022-10-04T00:04:42.014Z,101295.94
2022-10-04T00:07:11.280Z,101296.16
2022-10-04T00:09:55.868Z,101291.53
2022-10-04T00:12:27.238Z,101294.38
2022-10-04T00:14:57.498Z,101288.72
2022-10-04T00:17:27.276Z,101290.63
2022-10-04T00:19:55.297Z,101286.03
2022-10-04T00:22:28.822Z,101289.38
2022-10-04T00:25:07.480Z,101286.66
2022-10-04T00:27:38.845Z,101298.00
2022-10-04T00:30:05.250Z,101290.75
2022-10-04T00:32:31.596Z,101294.69
2022-10-04T00:35:00.211Z,101294.44
2022-10-04T00:37:27.740Z,101297.59
2022-10-04T00:40:26.288Z,101300.78
2022-10-04T00:42:58.706Z,101300.53
2022-10-04T00:45:41.312Z,101298.47
2022-10-04T00:48:33.208Z,101299.16
2022-10-04T00:51:07.136Z,101309.97
2022-10-04T00:53:53.016Z,101306.34
2022-10-04T00:56:37.214Z,101314.59
2022-10-04T00:59:09.679Z,101305.78
2022-10-04T01:01:37.873Z,101310.72
2022-10-04T01:04:12.753Z,101313.22
2022-10-04T01:06:41.724Z,101313.06
2022-10-04T01:09:10.413Z,101304.50
2022-10-04T01:11:50.657Z,101298.03
2022-10-04T01:14:33.501Z,101282.84
2022-10-04T01:16:59.990Z,101285.38
2022-10-04T01:19:31.195Z,101285.47
2022-10-04T01:22:00.389Z,101281.22
2022-10-04T01:24:34.032Z,101283.69
2022-10-04T01:27:00.880Z,101281.06
2022-10-04T01:29:29.872Z,101279.25
2022-10-04T01:32:01.005Z,101273.41
2022-10-04T01:34:28.405Z,101284.22
2022-10-04T01:36:57.845Z,101277.78
2022-10-04T01:39:26.205Z,101285.56
2022-10-04T01:42:05.110Z,101277.41
2022-10-04T01:44:37.422Z,101279.09
2022-10-04T01:47:09.762Z,101271.53
2022-10-04T01:49:39.232Z,101272.47
2022-10-04T01:52:10.696Z,101273.28
2022-10-04T01:54:43.404Z,101267.66
2022-10-04T01:57:27.578Z,101269.47
2022-10-04T02:00:02.002Z,101267.09
2022-10-04T02:02:35.466Z,101271.03
2022-10-04T02:05:06.337Z,101268.44
2022-10-04T02:07:34.833Z,101259.97
2022-10-04T02:10:05.479Z,101262.97
2022-10-04T02:12:34.040Z,101265.84
2022-10-04T02:15:04.181Z,101266.06
2022-10-04T02:17:33.772Z,101265.03
2022-10-04T02:20:02.846Z,101268.44
2022-10-04T02:22:30.437Z,101261.88
2022-10-04T02:24:58.027Z,101260.63
2022-10-04T02:27:31.603Z,101263.31
2022-10-04T02:30:03.385Z,101265.94
2022-10-04T02:32:51.275Z,101266.84
2022-10-04T02:35:19.783Z,101264.59
2022-10-04T02:37:50.718Z,101262.44
2022-10-04T02:40:21.649Z,101268.94
2022-10-04T02:43:11.221Z,101261.69
2022-10-04T02:46:22.105Z,101261.56
2022-10-04T02:48:58.831Z,101262.16
2022-10-04T02:51:38.629Z,101268.66
2022-10-04T02:54:25.049Z,101268.56
2022-10-04T02:56:55.316Z,101264.47
2022-10-04T02:59:22.516Z,101276.91
2022-10-04T03:01:53.414Z,101270.16
2022-10-04T03:04:26.822Z,101276.16
2022-10-04T03:06:54.977Z,101269.09
2022-10-04T03:09:27.423Z,101272.41
2022-10-04T03:11:56.433Z,101277.13
2022-10-04T03:14:26.637Z,101273.09
2022-10-04T03:16:57.445Z,101277.34
2022-10-04T03:19:26.862Z,101280.41
2022-10-04T03:21:57.937Z,101281.84
2022-10-04T03:24:30.166Z,101285.38
2022-10-04T03:26:59.423Z,101285.13
2022-10-04T03:29:30.230Z,101289.41
2022-10-04T03:31:58.121Z,101287.97
2022-10-04T03:34:46.689Z,101287.28
2022-10-04T03:37:16.488Z,101292.72
2022-10-04T03:39:49.192Z,101296.34
2022-10-04T03:42:15.795Z,101301.03
2022-10-04T03:44:47.326Z,101296.19
2022-10-04T03:47:20.692Z,101292.28
2022-10-04T03:49:51.030Z,101295.88
2022-10-04T03:52:25.381Z,101296.47
2022-10-04T03:54:55.128Z,101294.41
2022-10-04T03:57:22.634Z,101295.19
2022-10-04T03:59:50.269Z,101291.69
2022-10-04T04:02:30.258Z,101292.13
2022-10-04T04:05:21.316Z,101305.88
2022-10-04T04:08:00.758Z,101303.41
2022-10-04T04:10:33.979Z,101307.94
2022-10-04T04:13:15.349Z,101303.53
2022-10-04T04:15:43.345Z,101304.66
2022-10-04T04:18:17.485Z,101309.97
2022-10-04T04:20:44.593Z,101310.09
2022-10-04T04:23:11.790Z,101315.31
2022-10-04T04:25:41.180Z,101307.38
2022-10-04T04:28:30.002Z,101314.03
2022-10-04T04:31:09.250Z,101308.72
2022-10-04T04:33:51.414Z,101324.03
2022-10-04T04:36:17.900Z,101315.66
2022-10-04T04:39:02.860Z,101322.28
2022-10-04T04:41:33.763Z,101330.31
2022-10-04T04:44:00.349Z,101329.56
2022-10-04T04:46:29.044Z,101331.63
2022-10-04T04:49:02.550Z,101334.78
2022-10-04T04:51:31.585Z,101327.09
2022-10-04T04:54:01.718Z,101334.88
2022-10-04T04:56:30.544Z,101332.97
2022-10-04T04:58:59.676Z,101334.97
2022-10-04T05:01:44.668Z,101340.84
2022-10-04T05:04:14.143Z,101331.22
2022-10-04T05:06:43.672Z,101342.03
2022-10-04T05:09:31.632Z,101348.00
2022-10-04T05:12:18.074Z,101346.88
2022-10-04T05:14:50.628Z,101348.34
2022-10-04T05:17:24.293Z,101358.47
2022-10-04T05:19:52.537Z,101348.06
2022-10-04T05:22:23.132Z,101355.28
2022-10-04T05:24:54.257Z,101355.56
2022-10-04T05:27:37.421Z,101358.25
2022-10-04T05:30:10.239Z,101361.88
2022-10-04T05:33:13.308Z,101366.91
2022-10-04T05:36:11.798Z,101370.31
2022-10-04T05:38:50.619Z,101376.25
2022-10-04T05:41:33.346Z,101375.72
2022-10-04T05:44:02.361Z,101370.75
2022-10-04T05:46:31.157Z,101374.28
2022-10-04T05:49:11.395Z,101373.84
2022-10-04T05:52:27.734Z,101379.72
2022-10-04T05:55:12.243Z,101387.28
2022-10-04T05:58:00.477Z,101385.31
2022-10-04T06:00:49.178Z,101385.31
2022-10-04T06:03:30.676Z,101395.97
2022-10-04T06:06:02.355Z,101401.16
2022-10-04T06:08:54.300Z,101392.94
2022-10-04T06:11:49.733Z,101404.28
2022-10-04T06:15:03.733Z,101410.97
2022-10-04T06:17:51.265Z,101412.66
2022-10-04T06:21:12.067Z,101413.84
2022-10-04T06:23:47.761Z,101422.69
2022-10-04T06:26:21.635Z,101430.69
2022-10-04T06:28:56.632Z,101433.09
2022-10-04T06:31:25.917Z,101445.09
2022-10-04T06:34:22.309Z,101439.22
2022-10-04T06:36:48.665Z,101449.09
2022-10-04T06:39:24.081Z,101446.47
2022-10-04T06:42:33.849Z,101458.81
2022-10-04T06:45:30.797Z,101453.81
2022-10-04T06:48:23.224Z,101453.38
2022-10-04T06:50:54.793Z,101455.75
2022-10-04T06:53:51.362Z,101464.09
2022-10-04T06:56:23.789Z,101461.31
2022-10-04T06:59:28.602Z,101469.22
2022-10-04T07:02:04.060Z,101469.47
2022-10-04T07:05:06.475Z,101468.03
2022-10-04T07:07:36.629Z,101476.63
2022-10-04T07:10:05.554Z,101468.84
2022-10-04T07:12:40.978Z,101472.72
2022-10-04T07:15:19.555Z,101476.56
2022-10-04T07:17:48.913Z,101476.94
2022-10-04T07:20:22.764Z,101477.16
2022-10-04T07:23:14.387Z,101487.66
2022-10-04T07:25:51.976Z,101484.19
2022-10-04T07:28:43.999Z,101489.59
2022-10-04T07:31:27.265Z,101495.69
2022-10-04T07:34:00.024Z,101488.81
2022-10-04T07:36:39.819Z,101497.41
2022-10-04T07:39:52.638Z,101493.09
2022-10-04T07:42:25.752Z,101490.50
2022-10-04T07:45:08.665Z,101489.81
2022-10-04T07:47:35.236Z,101488.81
2022-10-04T07:50:25.029Z,101492.31
2022-10-04T07:53:09.188Z,101498.91
2022-10-04T07:55:47.604Z,101496.06
2022-10-04T07:58:16.706Z,101492.03
2022-10-04T08:01:01.825Z,101508.09
2022-10-04T08:04:00.067Z,101502.47
2022-10-04T08:06:44.147Z,101512.81
2022-10-04T08:09:23.317Z,101505.22
2022-10-04T08:12:17.040Z,101507.28
2022-10-04T08:15:12.272Z,101503.56
2022-10-04T08:17:56.067Z,101504.34
2022-10-04T08:20:32.621Z,101502.34
2022-10-04T08:23:24.834Z,101509.22
2022-10-04T08:26:12.691Z,101511.72
2022-10-04T08:29:09.523Z,101511.16
2022-10-04T08:32:13.201Z,101510.00
2022-10-04T08:35:16.453Z,101514.31
2022-10-04T08:37:54.819Z,101513.06
2022-10-04T08:40:47.341Z,101519.72
2022-10-04T08:43:30.604Z,101516.66
2022-10-04T08:46:28.317Z,101523.69
2022-10-04T08:49:38.302Z,101520.94
2022-10-04T08:52:30.981Z,101524.44
2022-10-04T08:55:21.024Z,101526.56
2022-10-04T08:58:01.440Z,101524.84
2022-10-04T09:00:46.866Z,101531.31
2022-10-04T09:03:51.102Z,101532.41
2022-10-04T09:06:38.191Z,101538.84
2022-10-04T09:09:35.738Z,101549.56
2022-10-04T09:12:37.504Z,101552.19
2022-10-04T09:15:31.196Z,101549.81
2022-10-04T09:18:12.976Z,101557.41
2022-10-04T09:20:48.327Z,101552.81
2022-10-04T09:23:23.800Z,101550.31
2022-10-04T09:26:08.386Z,101551.13
2022-10-04T09:29:22.417Z,101547.88
2022-10-04T09:32:16.565Z,101553.94
2022-10-04T09:35:24.213Z,101549.88
2022-10-04T09:38:18.158Z,101557.56
2022-10-04T09:40:58.466Z,101554.44
2022-10-04T09:43:35.948Z,101560.47
2022-10-04T09:46:23.185Z,101563.50
2022-10-04T09:49:32.682Z,101549.88
2022-10-04T09:52:16.177Z,101562.25
2022-10-04T09:55:19.843Z,101557.78
2022-10-04T09:58:22.917Z,101559.19
2022-10-04T10:01:13.956Z,101561.03
2022-10-04T10:04:08.766Z,101562.16
2022-10-04T10:06:41.360Z,101556.75
2022-10-04T10:09:18.370Z,101563.75
2022-10-04T10:12:18.417Z,101557.66
2022-10-04T10:15:17.630Z,101556.63
2022-10-04T10:18:02.581Z,101548.00
2022-10-04T10:20:47.920Z,101552.00
2022-10-04T10:24:02.554Z,101558.34
2022-10-04T10:26:58.000Z,101555.53
2022-10-04T10:29:36.562Z,101563.25
2022-10-04T10:32:19.125Z,101550.53
2022-10-04T10:35:08.707Z,101558.22
2022-10-04T10:37:45.699Z,101549.91
2022-10-04T10:40:21.295Z,101549.56
2022-10-04T10:43:07.992Z,101546.16
2022-10-04T10:45:49.734Z,101549.09
2022-10-04T10:48:33.542Z,101545.91
2022-10-04T10:51:38.175Z,101555.25
2022-10-04T10:54:42.584Z,101555.56
2022-10-04T10:57:34.053Z,101557.03
2022-10-04T11:00:18.173Z,101558.25
2022-10-04T11:03:22.686Z,101558.69
2022-10-04T11:06:07.233Z,101558.88
2022-10-04T11:08:53.060Z,101560.28
2022-10-04T11:11:34.765Z,101553.38
2022-10-04T11:14:29.062Z,101558.72
2022-10-04T11:16:56.710Z,101550.13
2022-10-04T11:20:16.678Z,101552.41
2022-10-04T11:23:02.043Z,101554.03
2022-10-04T11:25:52.765Z,101544.63
2022-10-04T11:28:56.723Z,101539.59
2022-10-04T11:31:41.295Z,101542.50
2022-10-04T11:34:22.855Z,101538.19
2022-10-04T11:37:20.638Z,101542.28
2022-10-04T11:40:55.399Z,101541.09
2022-10-04T11:43:55.552Z,101546.22
2022-10-04T11:46:37.097Z,101547.97
2022-10-04T11:49:16.758Z,101548.19
2022-10-04T11:52:20.799Z,101544.06
2022-10-04T11:54:57.197Z,101537.47
2022-10-04T11:57:36.677Z,101538.97
2022-10-04T12:00:25.891Z,101534.13
2022-10-04T12:03:16.063Z,101533.41
2022-10-04T12:05:48.887Z,101528.69
2022-10-04T12:08:37.359Z,101530.78
2022-10-04T12:11:15.965Z,101522.25
2022-10-04T12:14:04.031Z,101521.91
2022-10-04T12:16:57.057Z,101521.81
2022-10-04T12:19:32.446Z,101516.28
2022-10-04T12:22:17.319Z,101508.22
2022-10-04T12:25:12.906Z,101508.97
2022-10-04T12:27:51.241Z,101504.81
2022-10-04T12:30:36.752Z,101502.84
2022-10-04T12:33:26.090Z,101489.28
2022-10-04T12:36:08.343Z,101491.84
2022-10-04T12:38:56.423Z,101486.69
2022-10-04T12:41:35.948Z,101492.09
2022-10-04T12:44:13.150Z,101487.72
2022-10-04T12:46:59.952Z,101483.34
2022-10-04T12:49:56.343Z,101484.16
2022-10-04T12:52:27.064Z,101480.31
2022-10-04T12:54:53.401Z,101479.44
2022-10-04T12:57:20.159Z,101477.75
2022-10-04T13:00:00.001Z,101473.53
2022-10-04T13:02:57.353Z,101472.19
2022-10-04T13:05:32.788Z,101468.22
2022-10-04T13:08:15.654Z,101467.75
2022-10-04T13:10:47.839Z,101463.91
2022-10-04T13:13:36.060Z,101468.28
2022-10-04T13:19:24.006Z,101465.31
2022-10-04T13:21:58.860Z,101457.53
2022-10-04T13:24:54.060Z,101461.16
2022-10-04T13:27:38.398Z,101458.91
2022-10-04T13:30:07.119Z,101460.91
2022-10-04T13:33:14.153Z,101458.28
2022-10-04T13:36:06.824Z,101454.22
2022-10-04T13:38:54.343Z,101457.81
2022-10-04T13:41:29.813Z,101451.06
2022-10-04T13:44:15.260Z,101450.09
2022-10-04T13:47:06.130Z,101449.16
2022-10-04T13:49:34.657Z,101444.13
2022-10-04T13:52:28.559Z,101451.13
2022-10-04T13:55:23.296Z,101442.66
2022-10-04T13:57:57.902Z,101445.13
2022-10-04T14:01:01.795Z,101448.63
2022-10-04T14:03:40.575Z,101454.38
2022-10-04T14:06:34.619Z,101447.53
2022-10-04T14:09:19.379Z,101449.06
2022-10-04T14:12:04.114Z,101446.38
2022-10-04T14:15:12.174Z,101455.75
2022-10-04T14:17:56.798Z,101451.13
2022-10-04T14:20:29.312Z,101445.13
2022-10-04T14:22:58.726Z,101443.38
2022-10-04T14:26:15.830Z,101446.38
2022-10-04T14:28:52.991Z,101447.63
2022-10-04T14:31:47.048Z,101441.56
2022-10-04T14:34:47.528Z,101446.44
2022-10-04T14:37:36.808Z,101451.88
2022-10-04T14:40:18.479Z,101446.38
2022-10-04T14:42:47.969Z,101438.31
2022-10-04T14:45:43.528Z,101442.66
2022-10-04T14:48:30.198Z,101440.22
2022-10-04T14:51:28.729Z,101439.25
2022-10-04T14:54:22.296Z,101442.31
2022-10-04T14:57:01.706Z,101428.59
2022-10-04T15:00:06.796Z,101429.31
2022-10-04T15:02:33.162Z,101434.34
2022-10-04T15:05:06.166Z,101435.44
2022-10-04T15:07:37.421Z,101433.63
2022-10-04T15:10:03.954Z,101433.63
2022-10-04T15:12:52.001Z,101429.22
2022-10-04T15:15:19.178Z,101429.47
2022-10-04T15:17:51.285Z,101434.13
2022-10-04T15:20:54.137Z,101430.28
2022-10-04T15:23:38.660Z,101423.72
2022-10-04T15:26:19.936Z,101425.69
2022-10-04T15:28:48.914Z,101423.25
2022-10-04T15:31:27.275Z,101426.03
2022-10-04T15:34:03.129Z,101433.09
2022-10-04T15:36:52.700Z,101417.19
2022-10-04T15:39:58.720Z,101421.72
2022-10-04T15:42:37.027Z,101425.34
2022-10-04T15:45:18.684Z,101425.91
2022-10-04T15:48:11.698Z,101419.66
2022-10-04T15:50:59.595Z,101427.34
2022-10-04T15:53:50.289Z,101426.41
2022-10-04T15:56:33.119Z,101430.69
2022-10-04T15:58:59.471Z,101428.75
2022-10-04T16:01:55.087Z,101435.66
2022-10-04T16:04:33.197Z,101437.91
2022-10-04T16:07:41.086Z,101439.31
2022-10-04T16:10:39.423Z,101445.16
2022-10-04T16:13:56.971Z,101450.00
2022-10-04T16:16:29.054Z,101441.88
2022-10-04T16:19:20.087Z,101450.34
2022-10-04T16:21:52.393Z,101455.31
2022-10-04T16:24:22.021Z,101450.91
2022-10-04T16:26:50.989Z,101451.69
2022-10-04T16:29:28.012Z,101461.88
2022-10-04T16:32:21.298Z,101468.63
2022-10-04T16:35:03.298Z,101470.88
2022-10-04T16:37:57.605Z,101475.00
2022-10-04T16:40:30.152Z,101473.91
2022-10-04T16:43:01.856Z,101478.94
2022-10-04T16:45:48.651Z,101480.34
2022-10-04T16:48:30.145Z,101483.59
2022-10-04T16:51:04.932Z,101475.66
2022-10-04T16:54:05.840Z,101489.22
2022-10-04T16:56:56.391Z,101494.88
2022-10-04T17:00:07.482Z,101497.91
2022-10-04T17:02:49.121Z,101493.22
2022-10-04T17:05:35.846Z,101505.72
2022-10-04T17:08:17.810Z,101501.91
2022-10-04T17:10:49.908Z,101515.56
2022-10-04T17:13:21.028Z,101513.56
2022-10-04T17:16:07.536Z,101520.19
2022-10-04T17:18:55.404Z,101517.28
2022-10-04T17:21:32.758Z,101519.41
2022-10-04T17:24:10.169Z,101523.50
2022-10-04T17:27:00.813Z,101541.38
2022-10-04T17:29:36.949Z,101546.88
2022-10-04T17:32:03.272Z,101558.81
2022-10-04T17:34:36.177Z,101558.69
2022-10-04T17:37:06.076Z,101562.13
2022-10-04T17:39:47.083Z,101560.78
2022-10-04T17:42:31.864Z,101562.31
2022-10-04T17:45:16.977Z,101572.50
2022-10-04T17:48:19.036Z,101563.59
2022-10-04T17:51:39.345Z,101569.38
2022-10-04T17:54:39.330Z,101575.00
2022-10-04T17:57:05.673Z,101572.03
2022-10-04T17:59:47.890Z,101575.34
2022-10-04T18:02:42.052Z,101574.78
2022-10-04T18:05:26.822Z,101581.84
2022-10-04T18:08:08.018Z,101583.13
2022-10-04T18:10:52.873Z,101577.13
2022-10-04T18:13:27.875Z,101576.09
2022-10-04T18:15:57.268Z,101583.81
2022-10-04T18:18:29.166Z,101581.09
2022-10-04T18:20:55.481Z,101586.19
2022-10-04T18:23:28.276Z,101579.97
2022-10-04T18:25:59.511Z,101590.19
2022-10-04T18:28:26.007Z,101597.69
2022-10-04T18:30:52.448Z,101597.44
2022-10-04T18:33:26.625Z,101604.03
2022-10-04T18:35:59.448Z,101601.00
2022-10-04T18:38:41.044Z,101602.69
2022-10-04T18:41:18.991Z,101607.56
2022-10-04T18:44:04.838Z,101604.75
2022-10-04T18:46:39.797Z,101607.22
2022-10-04T18:49:16.888Z,101614.72
2022-10-04T18:52:10.703Z,101613.28
2022-10-04T18:54:58.904Z,101622.66
2022-10-04T18:57:56.435Z,101618.13
2022-10-04T19:00:41.656Z,101630.53
2022-10-04T19:03:45.004Z,101631.91
2022-10-04T19:06:20.923Z,101637.34
2022-10-04T19:09:09.044Z,101632.41
2022-10-04T19:11:51.800Z,101631.44
2022-10-04T19:14:26.024Z,101646.84
2022-10-04T19:16:57.007Z,101644.91
2022-10-04T19:19:46.938Z,101652.59
2022-10-04T19:22:35.037Z,101655.34
2022-10-04T19:25:07.645Z,101664.50
2022-10-04T19:27:45.157Z,101666.09
2022-10-04T19:30:25.216Z,101669.13
2022-10-04T19:33:11.648Z,101673.06
2022-10-04T19:36:06.037Z,101674.84
2022-10-04T19:38:57.373Z,101682.06
2022-10-04T19:41:51.232Z,101687.81
2022-10-04T19:45:19.369Z,101689.41
2022-10-04T19:47:58.600Z,101693.47
2022-10-04T19:51:04.425Z,101689.94
2022-10-04T19:53:45.173Z,101691.50
2022-10-04T19:56:23.741Z,101693.13
2022-10-04T19:59:09.154Z,101700.75
2022-10-04T20:01:36.486Z,101697.66
2022-10-04T20:04:30.278Z,101702.69
2022-10-04T20:06:58.672Z,101703.09
2022-10-04T20:09:36.964Z,101707.03
2022-10-04T20:12:05.958Z,101705.78
2022-10-04T20:14:32.365Z,101711.50
2022-10-04T20:17:00.690Z,101711.63
2022-10-04T20:19:27.047Z,101719.25
2022-10-04T20:22:13.862Z,101721.97
2022-10-04T20:24:40.259Z,101729.00
2022-10-04T20:27:21.927Z,101720.16
2022-10-04T20:29:51.714Z,101719.50
2022-10-04T20:32:26.910Z,101722.22
2022-10-04T20:34:54.986Z,101726.75
2022-10-04T20:37:21.728Z,101728.69
2022-10-04T20:39:48.058Z,101730.94
2022-10-04T20:42:33.541Z,101731.13
2022-10-04T20:45:08.993Z,101741.88
2022-10-04T20:47:39.313Z,101740.09
2022-10-04T20:50:08.020Z,101739.63
2022-10-04T20:52:36.841Z,101739.13
2022-10-04T20:55:15.480Z,101744.69
2022-10-04T20:57:41.920Z,101751.16
2022-10-04T21:00:18.357Z,101754.13
2022-10-04T21:02:44.839Z,101751.44
2022-10-04T21:05:17.392Z,101751.81
2022-10-04T21:07:43.812Z,101744.69
2022-10-04T21:10:20.218Z,101751.69
2022-10-04T21:12:47.182Z,101749.88
2022-10-04T21:15:16.637Z,101737.78
2022-10-04T21:18:07.164Z,101753.00
2022-10-04T21:20:49.434Z,101755.97
2022-10-04T21:23:18.568Z,101755.06
2022-10-04T21:25:45.066Z,101765.84
2022-10-04T21:28:29.990Z,101767.94
2022-10-04T21:30:56.608Z,101768.50
2022-10-04T21:33:23.011Z,101772.16
2022-10-04T21:35:51.486Z,101777.50
2022-10-04T21:38:18.668Z,101775.56
2022-10-04T21:40:45.194Z,101773.72
2022-10-04T21:43:11.686Z,101776.97
2022-10-04T21:45:38.132Z,101770.47
2022-10-04T21:48:04.553Z,101767.59
2022-10-04T21:50:30.972Z,101776.16
2022-10-04T21:52:59.617Z,101773.16
2022-10-04T21:55:26.031Z,101781.09
2022-10-04T21:57:52.423Z,101783.59
2022-10-04T22:00:18.949Z,101781.50
2022-10-04T22:02:45.441Z,101783.44
2022-10-04T22:05:11.922Z,101787.22
2022-10-04T22:07:38.383Z,101793.31
2022-10-04T22:10:05.300Z,101794.88
2022-10-04T22:12:31.723Z,101796.56
2022-10-04T22:14:58.133Z,101799.53
2022-10-04T22:17:24.619Z,101801.91
2022-10-04T22:19:52.895Z,101801.91
2022-10-04T22:22:19.352Z,101806.84
2022-10-04T22:24:45.749Z,101809.16
2022-10-04T22:27:17.366Z,101805.78
2022-10-04T22:29:44.796Z,101813.72
2022-10-04T22:32:26.049Z,101809.69
2022-10-04T22:35:01.325Z,101808.38
2022-10-04T22:37:29.701Z,101808.78
2022-10-04T22:39:56.141Z,101817.75
2022-10-04T22:42:27.640Z,101816.44
2022-10-04T22:44:54.095Z,101805.69
2022-10-04T22:47:20.532Z,101810.72
2022-10-04T22:49:49.885Z,101816.97
2022-10-04T22:52:17.992Z,101813.31
2022-10-04T22:54:47.000Z,101812.28
2022-10-04T22:57:15.509Z,101814.50
2022-10-04T22:59:44.979Z,101815.41
2022-10-04T23:02:15.761Z,101825.41
2022-10-04T23:04:45.782Z,101823.97
2022-10-04T23:07:12.227Z,101834.88
2022-10-04T23:09:38.642Z,101830.56
2022-10-04T23:12:08.596Z,101833.84
2022-10-04T23:14:38.951Z,101836.31
2022-10-04T23:17:23.478Z,101844.47
2022-10-04T23:19:52.833Z,101843.94
2022-10-04T23:22:25.557Z,101846.53
2022-10-04T23:24:52.296Z,101839.41
2022-10-04T23:27:18.768Z,101839.56
2022-10-04T23:29:49.479Z,101838.91
2022-10-04T23:32:18.587Z,101835.00
2022-10-04T23:34:47.959Z,101834.34
2022-10-04T23:37:24.093Z,101840.19
2022-10-04T23:39:51.109Z,101845.13
2022-10-04T23:42:31.874Z,101843.56
2022-10-04T23:45:00.014Z,101834.22
2022-10-04T23:47:34.914Z,101833.72
2022-10-04T23:50:01.973Z,101831.88
2022-10-04T23:52:37.125Z,101837.22
2022-10-04T23:55:18.485Z,101837.59
2022-10-04T23:57:45.058Z,101842.41
